createdAt,value
2023-05-01T04:02:34.813Z,4.78
2023-05-01T04:05:07.095Z,3.58
2023-05-01T04:07:38.735Z,5.72
2023-05-01T04:10:10.466Z,3.53
2023-05-01T04:12:42.122Z,5.00
2023-05-01T04:15:15.420Z,3.58
2023-05-01T04:17:48.666Z,4.30
2023-05-01T04:20:20.490Z,5.00
2023-05-01T04:22:52.125Z,4.18
2023-05-01T04:25:23.781Z,4.75
2023-05-01T04:27:55.412Z,4.40
2023-05-01T04:30:27.068Z,4.55
2023-05-01T04:33:00.114Z,3.38
2023-05-01T04:35:31.835Z,5.57
2023-05-01T04:38:03.486Z,5.05
2023-05-01T04:40:35.155Z,3.35
2023-05-01T04:43:06.848Z,4.47
2023-05-01T04:45:38.493Z,3.42
2023-05-01T04:48:11.579Z,6.10
2023-05-01T04:50:43.415Z,5.95
2023-05-01T04:53:15.051Z,6.03
2023-05-01T04:55:46.716Z,4.30
2023-05-01T04:58:18.367Z,10.52
2023-05-01T05:00:50.041Z,3.67
2023-05-01T05:03:23.213Z,5.78
2023-05-01T05:05:54.962Z,4.82
2023-05-01T05:08:26.674Z,5.05
2023-05-01T05:10:58.565Z,3.38
2023-05-01T05:13:30.229Z,5.53
2023-05-01T05:16:01.943Z,3.55
2023-05-01T05:18:34.988Z,5.40
2023-05-01T05:21:06.811Z,3.97
2023-05-01T05:23:38.472Z,4.10
2023-05-01T05:26:10.172Z,5.18
2023-05-01T05:28:41.868Z,4.22
2023-05-01T05:31:13.513Z,4.43
2023-05-01T05:33:46.526Z,5.75
2023-05-01T05:36:18.146Z,3.40
2023-05-01T05:38:49.826Z,3.30
2023-05-01T05:41:21.484Z,3.95
2023-05-01T05:43:53.129Z,5.50
2023-05-01T05:46:24.918Z,4.07
2023-05-01T05:48:57.951Z,3.92
2023-05-01T05:51:29.627Z,5.85
2023-05-01T05:54:01.302Z,7.13
2023-05-01T05:56:32.932Z,4.80
2023-05-01T05:59:04.652Z,4.57
2023-05-01T06:01:36.331Z,2.90
2023-05-01T06:04:09.323Z,5.85
2023-05-01T06:06:41.113Z,3.17
2023-05-01T06:09:12.856Z,4.15
2023-05-01T06:11:44.733Z,4.50
2023-05-01T06:14:16.424Z,4.93
2023-05-01T06:16:48.068Z,4.20
2023-05-01T06:19:21.094Z,4.43
2023-05-01T06:21:52.738Z,4.57
2023-05-01T06:24:24.501Z,3.80
2023-05-01T06:26:56.247Z,4.22
2023-05-01T06:29:27.912Z,6.03
2023-05-01T06:31:59.732Z,4.50
2023-05-01T06:34:32.931Z,5.13
2023-05-01T06:37:04.584Z,5.00
2023-05-01T06:39:36.265Z,5.40
2023-05-01T06:42:07.932Z,4.25
2023-05-01T06:44:39.604Z,3.53
2023-05-01T06:47:11.425Z,4.53
2023-05-01T06:49:44.621Z,4.10
2023-05-01T06:52:16.296Z,3.47
2023-05-01T06:54:47.969Z,5.45
2023-05-01T06:57:19.629Z,3.25
2023-05-01T06:59:51.300Z,4.47
2023-05-01T07:02:23.077Z,5.22
2023-05-01T07:04:56.165Z,5.28
2023-05-01T07:07:27.821Z,4.40
2023-05-01T07:09:59.582Z,3.20
2023-05-01T07:12:31.451Z,3.22
2023-05-01T07:15:03.503Z,5.38
2023-05-01T07:17:35.210Z,3.47
2023-05-01T07:20:09.462Z,4.53
2023-05-01T07:22:41.120Z,4.13
2023-05-01T07:25:12.803Z,4.57
2023-05-01T07:27:44.580Z,4.03
2023-05-01T07:30:16.304Z,5.10
2023-05-01T07:32:48.031Z,3.97
2023-05-01T07:35:21.107Z,5.25
2023-05-01T07:37:52.788Z,5.43
2023-05-01T07:40:24.488Z,3.08
2023-05-01T07:42:56.227Z,3.47
2023-05-01T07:45:27.926Z,2.90
2023-05-01T07:47:59.647Z,3.85
2023-05-01T07:50:32.705Z,2.75
2023-05-01T07:53:04.352Z,4.50
2023-05-01T07:55:36.028Z,3.08
2023-05-01T07:58:07.794Z,3.67
2023-05-01T08:00:39.471Z,3.25
2023-05-01T08:03:11.345Z,4.75
2023-05-01T08:05:44.505Z,6.00
2023-05-01T08:08:16.162Z,3.05
2023-05-01T08:10:47.815Z,8.70
2023-05-01T08:13:19.479Z,4.97
2023-05-01T08:15:51.152Z,3.38
2023-05-01T08:18:22.835Z,3.58
2023-05-01T08:20:55.930Z,4.38
2023-05-01T08:23:27.600Z,3.33
2023-05-01T08:25:59.252Z,3.25
2023-05-01T08:28:30.958Z,6.38
2023-05-01T08:31:02.664Z,3.90
2023-05-01T08:33:34.367Z,2.88
2023-05-01T08:36:07.851Z,3.30
2023-05-01T08:38:39.537Z,3.22
2023-05-01T08:41:14.343Z,3.05
2023-05-01T08:43:46.026Z,4.97
2023-05-01T08:46:23.064Z,3.72
2023-05-01T08:48:55.660Z,2.50
2023-05-01T08:51:28.874Z,3.38
2023-05-01T08:54:01.178Z,2.85
2023-05-01T08:56:32.834Z,3.60
2023-05-01T08:59:04.760Z,4.28
2023-05-01T09:01:36.445Z,5.28
2023-05-01T09:04:08.188Z,4.57
2023-05-01T09:06:41.296Z,4.10
2023-05-01T09:09:13.032Z,5.88
2023-05-01T09:11:44.807Z,5.93
2023-05-01T09:14:16.499Z,3.25
2023-05-01T09:16:48.243Z,5.25
2023-05-01T09:19:19.933Z,4.80
2023-05-01T09:21:53.182Z,4.13
2023-05-01T09:24:24.891Z,3.03
2023-05-01T09:26:56.556Z,5.35
2023-05-01T09:29:38.038Z,3.60
2023-05-01T09:32:16.774Z,3.20
2023-05-01T09:34:48.675Z,4.05
2023-05-01T09:37:28.892Z,2.95
2023-05-01T09:40:04.833Z,5.72
2023-05-01T09:42:37.226Z,4.80
2023-05-01T09:45:12.930Z,4.40
2023-05-01T09:47:44.826Z,3.83
2023-05-01T09:50:28.709Z,4.20
2023-05-01T09:53:02.616Z,4.90
2023-05-01T09:55:34.612Z,5.10
2023-05-01T09:58:06.429Z,2.80
2023-05-01T10:00:47.507Z,3.95
2023-05-01T10:03:19.324Z,4.10
2023-05-01T10:05:51.101Z,4.72
2023-05-01T10:08:24.280Z,6.82
2023-05-01T10:11:02.588Z,12.60
2023-05-01T10:13:34.268Z,7.07
2023-05-01T10:16:06.832Z,24.90
2023-05-01T10:18:38.505Z,7.63
2023-05-01T10:21:10.186Z,12.45
2023-05-01T10:23:43.199Z,8.05
2023-05-01T10:26:14.897Z,35.50
2023-05-01T10:28:47.365Z,3.83
2023-05-01T10:31:19.093Z,3.75
2023-05-01T10:33:50.807Z,4.45
2023-05-01T10:36:24.883Z,3.58
2023-05-01T10:38:57.937Z,4.68
2023-05-01T10:42:01.107Z,4.65
2023-05-01T10:44:32.936Z,3.80
2023-05-01T10:47:42.086Z,2.58
2023-05-01T10:50:13.845Z,2.25
2023-05-01T10:53:16.941Z,2.53
2023-05-01T10:55:50.042Z,3.50
2023-05-01T10:58:56.792Z,2.45
2023-05-01T11:01:29.754Z,2.72
2023-05-01T11:04:02.856Z,2.83
2023-05-01T11:06:35.060Z,1.70
2023-05-01T11:09:38.135Z,2.30
2023-05-01T11:12:11.764Z,3.67
2023-05-01T11:15:02.980Z,2.40
2023-05-01T11:17:47.261Z,2.92
2023-05-01T11:20:46.155Z,4.53
2023-05-01T11:23:21.516Z,2.47
2023-05-01T11:26:01.772Z,2.50
2023-05-01T11:28:34.809Z,3.30
2023-05-01T11:31:06.506Z,3.50
2023-05-01T11:33:38.282Z,2.05
2023-05-01T11:36:09.941Z,1.75
2023-05-01T11:38:49.627Z,2.55
2023-05-01T11:41:21.398Z,2.70
2023-05-01T11:43:55.153Z,4.55
2023-05-01T11:46:27.342Z,5.50
2023-05-01T11:49:00.164Z,2.13
2023-05-01T11:51:31.834Z,4.05
2023-05-01T11:54:04.305Z,3.30
2023-05-01T11:56:36.646Z,2.88
2023-05-01T11:59:13.132Z,1.98
2023-05-01T12:01:45.360Z,3.50
2023-05-01T12:04:23.787Z,3.30
2023-05-01T12:06:56.489Z,2.80
2023-05-01T12:09:28.144Z,1.63
2023-05-01T12:11:59.864Z,4.93
2023-05-01T12:14:32.893Z,2.97
2023-05-01T12:17:05.521Z,3.97
2023-05-01T12:19:45.961Z,2.53
2023-05-01T12:22:17.697Z,4.90
2023-05-01T12:24:50.461Z,2.35
2023-05-01T12:27:22.126Z,2.33
2023-05-01T12:29:55.131Z,1.75
2023-05-01T12:32:31.134Z,2.15
2023-05-01T12:35:13.103Z,3.33
2023-05-01T12:37:44.766Z,3.33
2023-05-01T12:40:16.452Z,3.35
2023-05-01T12:42:54.253Z,2.40
2023-05-01T12:45:27.246Z,4.40
2023-05-01T12:47:58.973Z,1.92
2023-05-01T12:50:35.975Z,2.45
2023-05-01T12:53:07.942Z,3.10
2023-05-01T12:55:43.899Z,2.22
2023-05-01T12:58:16.080Z,3.05
2023-05-01T13:00:50.156Z,3.65
2023-05-01T13:03:23.773Z,2.92
2023-05-01T13:05:56.541Z,1.60
2023-05-01T13:08:30.224Z,2.20
2023-05-01T13:11:11.663Z,2.33
2023-05-01T13:13:43.929Z,1.60
2023-05-01T13:16:17.083Z,2.47
2023-05-01T13:18:49.845Z,1.50
2023-05-01T13:21:22.078Z,3.63
2023-05-01T13:23:54.453Z,2.17
2023-05-01T13:26:26.507Z,2.05
2023-05-01T13:28:58.353Z,1.83
2023-05-01T13:31:31.505Z,2.75
2023-05-01T13:34:03.212Z,1.40
2023-05-01T13:36:34.898Z,1.80
2023-05-01T13:39:06.571Z,3.45
2023-05-01T13:41:38.269Z,3.13
2023-05-01T13:44:09.917Z,1.30
2023-05-01T13:46:42.960Z,1.58
2023-05-01T13:49:14.785Z,3.88
2023-05-01T13:51:46.504Z,3.25
2023-05-01T13:54:18.156Z,2.15
2023-05-01T13:56:49.863Z,2.65
2023-05-01T13:59:21.551Z,4.32
2023-05-01T14:01:54.621Z,4.30
2023-05-01T14:04:26.307Z,5.93
2023-05-01T14:06:58.018Z,4.28
2023-05-01T14:09:29.689Z,4.18
2023-05-01T14:12:01.393Z,6.30
2023-05-01T14:14:33.067Z,4.55
2023-05-01T14:17:06.170Z,6.57
2023-05-01T14:19:37.883Z,8.32
2023-05-01T14:22:09.577Z,6.03
2023-05-01T14:24:41.283Z,6.60
2023-05-01T14:27:13.441Z,4.93
2023-05-01T14:29:45.085Z,5.43
2023-05-01T14:32:18.108Z,6.90
2023-05-01T14:34:49.750Z,8.60
2023-05-01T14:37:21.434Z,5.07
2023-05-01T14:39:53.066Z,3.40
2023-05-01T14:42:24.740Z,5.38
2023-05-01T14:44:56.747Z,3.70
2023-05-01T14:47:29.998Z,3.65
2023-05-01T14:50:01.703Z,5.25
2023-05-01T14:52:33.554Z,4.85
2023-05-01T14:55:05.690Z,7.03
2023-05-01T14:57:37.427Z,4.90
2023-05-01T15:00:10.305Z,5.55
2023-05-01T15:02:43.518Z,5.82
2023-05-01T15:05:15.326Z,4.72
2023-05-01T15:07:47.043Z,4.90
2023-05-01T15:10:18.893Z,9.00
2023-05-01T15:12:50.563Z,5.75
2023-05-01T15:15:22.238Z,4.85
2023-05-01T15:17:55.718Z,6.68
2023-05-01T15:20:27.421Z,7.03
2023-05-01T15:22:59.083Z,5.43
2023-05-01T15:25:31.102Z,5.72
2023-05-01T15:28:02.896Z,5.53
2023-05-01T15:30:34.599Z,5.13
2023-05-01T15:33:07.660Z,6.25
2023-05-01T15:35:39.371Z,4.25
2023-05-01T15:38:11.130Z,7.75
2023-05-01T15:40:43.074Z,4.72
2023-05-01T15:43:14.749Z,5.30
2023-05-01T15:45:46.508Z,4.03
2023-05-01T15:48:19.715Z,4.95
2023-05-01T15:50:51.388Z,4.15
2023-05-01T15:53:23.294Z,3.90
2023-05-01T15:55:56.480Z,4.57
2023-05-01T15:58:28.242Z,4.55
2023-05-01T16:00:59.923Z,5.43
2023-05-01T16:03:33.009Z,5.47
2023-05-01T16:06:05.006Z,6.28
2023-05-01T16:08:36.680Z,5.28
2023-05-01T16:11:10.013Z,5.65
2023-05-01T16:13:42.761Z,4.50
2023-05-01T16:16:19.256Z,6.03
2023-05-01T16:18:54.293Z,4.30
2023-05-01T16:21:26.718Z,6.13
2023-05-01T16:23:58.373Z,4.40
2023-05-01T16:26:30.210Z,4.47
2023-05-01T16:29:04.254Z,4.78
2023-05-01T16:31:37.717Z,5.20
2023-05-01T16:34:12.017Z,5.15
2023-05-01T16:36:44.156Z,6.35
2023-05-01T16:39:16.884Z,5.63
2023-05-01T16:41:49.475Z,4.35
2023-05-01T16:44:21.950Z,4.50
2023-05-01T16:46:54.324Z,3.88
2023-05-01T16:49:27.383Z,4.40
2023-05-01T16:51:59.439Z,5.53
2023-05-01T16:54:31.176Z,4.05
2023-05-01T16:57:02.878Z,7.15
2023-05-01T16:59:34.562Z,6.25
2023-05-01T17:02:06.722Z,6.15
2023-05-01T17:04:39.899Z,7.35
2023-05-01T17:07:11.674Z,6.82
2023-05-01T17:09:43.371Z,5.47
2023-05-01T17:12:15.648Z,6.00
2023-05-01T17:14:47.386Z,6.38
2023-05-01T17:17:19.140Z,8.45
2023-05-01T17:19:52.501Z,6.32
2023-05-01T17:22:24.266Z,7.00
2023-05-01T17:24:55.961Z,8.50
2023-05-01T17:27:27.778Z,5.68
2023-05-01T17:29:59.720Z,6.05
2023-05-01T17:32:36.971Z,6.25
2023-05-01T17:35:10.929Z,6.93
2023-05-01T17:37:42.632Z,5.43
2023-05-01T17:40:14.279Z,5.25
2023-05-01T17:42:45.978Z,4.93
2023-05-01T17:45:17.890Z,5.03
2023-05-01T17:47:49.617Z,3.85
2023-05-01T17:50:22.734Z,4.68
2023-05-01T17:52:54.414Z,5.65
2023-05-01T17:55:26.082Z,6.10
2023-05-01T17:57:57.784Z,4.60
2023-05-01T18:00:29.882Z,5.18
2023-05-01T18:03:01.706Z,4.93
2023-05-01T18:05:34.814Z,5.40
2023-05-01T18:08:06.488Z,6.28
2023-05-01T18:10:38.167Z,6.30
2023-05-01T18:13:09.892Z,5.25
2023-05-01T18:15:41.560Z,5.63
2023-05-01T18:18:13.373Z,5.05
2023-05-01T18:20:46.478Z,5.28
2023-05-01T18:23:18.246Z,7.03
2023-05-01T18:25:49.956Z,5.82
2023-05-01T18:28:21.640Z,8.20
2023-05-01T18:30:53.322Z,5.65
2023-05-01T18:33:25.091Z,7.70
2023-05-01T18:35:58.172Z,5.50
2023-05-01T18:38:29.855Z,7.28
2023-05-01T18:41:01.533Z,6.38
2023-05-01T18:43:33.208Z,9.40
2023-05-01T18:46:06.195Z,5.30
2023-05-01T18:48:37.906Z,10.10
2023-05-01T18:51:10.912Z,8.68
2023-05-01T18:53:42.735Z,7.30
2023-05-01T18:56:14.437Z,7.20
2023-05-01T18:58:46.096Z,7.97
2023-05-01T19:01:17.907Z,8.38
2023-05-01T19:03:49.632Z,7.45
2023-05-01T19:06:23.060Z,9.27
2023-05-01T19:08:55.308Z,10.60
2023-05-01T19:11:27.420Z,9.20
2023-05-01T19:13:59.455Z,9.00
2023-05-01T19:16:31.523Z,8.10
2023-05-01T19:19:03.235Z,7.93
2023-05-01T19:21:36.284Z,9.63
2023-05-01T19:24:07.943Z,8.48
2023-05-01T19:26:39.638Z,8.23
2023-05-01T19:29:11.299Z,9.07
2023-05-01T19:31:43.090Z,10.02
2023-05-01T19:34:14.783Z,10.27
2023-05-01T19:36:47.846Z,9.48
2023-05-01T19:39:19.509Z,10.20
2023-05-01T19:41:51.204Z,10.10
2023-05-01T19:44:22.854Z,13.15
2023-05-01T19:46:54.531Z,9.82
2023-05-01T19:49:26.186Z,11.40
2023-05-01T19:51:59.299Z,11.95
2023-05-01T19:54:30.971Z,12.27
2023-05-01T19:57:02.669Z,11.00
2023-05-01T19:59:34.337Z,11.80
2023-05-01T20:02:06.296Z,11.90
2023-05-01T20:04:38.061Z,13.05
2023-05-01T20:07:11.151Z,11.05
2023-05-01T20:09:42.801Z,11.38
2023-05-01T20:12:14.504Z,11.23
2023-05-01T20:14:46.164Z,13.13
2023-05-01T20:17:17.865Z,12.07
2023-05-01T20:19:49.574Z,12.70
2023-05-01T20:22:22.614Z,13.07
2023-05-01T20:24:54.289Z,12.73
2023-05-01T20:27:25.970Z,14.18
2023-05-01T20:29:57.981Z,14.52
2023-05-01T20:32:29.834Z,17.20
2023-05-01T20:35:01.535Z,13.88
2023-05-01T20:37:34.573Z,15.15
2023-05-01T20:40:07.237Z,15.95
2023-05-01T20:42:38.969Z,17.90
2023-05-01T20:45:10.646Z,14.73
2023-05-01T20:47:42.612Z,14.88
2023-05-01T20:50:14.530Z,15.25
2023-05-01T20:52:47.540Z,16.92
2023-05-01T20:55:19.380Z,14.82
2023-05-01T20:57:51.047Z,15.85
2023-05-01T21:00:25.210Z,14.77
2023-05-01T21:02:56.965Z,14.88
2023-05-01T21:05:28.738Z,16.95
2023-05-01T21:08:02.134Z,17.02
2023-05-01T21:10:35.029Z,17.73
2023-05-01T21:13:06.768Z,18.70
2023-05-01T21:15:40.920Z,17.08
2023-05-01T21:18:12.700Z,17.73
2023-05-01T21:20:44.468Z,20.60
2023-05-01T21:23:17.559Z,19.75
2023-05-01T21:25:49.233Z,20.00
2023-05-01T21:28:20.901Z,20.42
2023-05-01T21:30:52.574Z,21.45
2023-05-01T21:33:24.233Z,20.55
2023-05-01T21:35:55.918Z,18.98
2023-05-01T21:38:28.971Z,22.75
2023-05-01T21:41:00.745Z,20.85
2023-05-01T21:43:32.510Z,19.92
2023-05-01T21:46:04.559Z,20.33
2023-05-01T21:48:36.215Z,22.35
2023-05-01T21:51:07.903Z,25.52
2023-05-01T21:53:41.364Z,21.05
2023-05-01T21:56:14.023Z,25.73
2023-05-01T21:58:45.677Z,27.35
